Time;durP1;ratioP1;P1;durP2;ratioP2;P2;SDS_P1;SDS_P2;PMS_P1;PMS_P2;Temp;Humidity;BMP_temperature;BMP_pressure;BME280_temperature;BME280_humidity;BME280_pressure;Samples;Min_cycle;Max_cycle;Signal;HPM_P1;HPM_P2
2021/12/17 00:05:06;;;;;;;42.40;28.27;;;;;;;7.28;100.00;103913.53;6227966;23;20357;-64
2021/12/17 00:07:35;;;;;;;44.40;28.67;;;;;;;7.29;100.00;103904.91;6217794;23;20000;-63
2021/12/17 00:10:10;;;;;;;43.08;29.20;;;;;;;7.26;100.00;103896.97;6217363;23;20009;-63
2021/12/17 00:12:35;;;;;;;42.72;27.55;;;;;;;7.27;100.00;103910.03;6217021;23;20421;-64
2021/12/17 00:15:05;;;;;;;39.20;27.60;;;;;;;7.25;100.00;103898.66;6216909;23;20005;-64
2021/12/17 00:17:35;;;;;;;42.42;27.75;;;;;;;7.29;100.00;103897.09;6216893;23;20005;-63
2021/12/17 00:50:03;;;;;;;50.00;30.55;;;;;;;7.41;100.00;103889.88;6219416;23;20086;-63
2021/12/17 00:52:34;;;;;;;49.15;30.63;;;;;;;7.41;100.00;103881.19;6218922;23;20012;-64
2021/12/17 00:55:00;;;;;;;51.55;31.77;;;;;;;7.41;100.00;103886.38;6218910;23;20016;-63
2021/12/17 00:57:30;;;;;;;49.08;32.50;;;;;;;7.42;100.00;103886.47;6219030;23;20352;-63
2021/12/17 00:59:56;;;;;;;53.33;33.03;;;;;;;7.44;100.00;103879.63;6219079;23;20005;-63
2021/12/17 01:02:26;;;;;;;55.25;33.83;;;;;;;7.47;100.00;103897.97;6218466;23;20357;-63
2021/12/17 01:04:55;;;;;;;51.97;32.50;;;;;;;7.49;100.00;103890.22;6218816;23;20044;-64
2021/12/17 01:07:23;;;;;;;54.22;32.78;;;;;;;7.49;100.00;103887.63;6218925;23;20005;-63
2021/12/17 01:09:49;;;;;;;54.50;33.33;;;;;;;7.48;100.00;103880.63;6218290;23;20081;-63
2021/12/17 01:12:15;;;;;;;51.25;30.80;;;;;;;7.50;100.00;103884.19;6218217;23;20005;-63
2021/12/17 01:14:42;;;;;;;49.97;30.92;;;;;;;7.45;100.00;103878.75;6219099;23;20146;-64
2021/12/17 01:17:09;;;;;;;48.85;30.63;;;;;;;7.42;100.00;103862.13;6218323;23;20394;-63
2021/12/17 01:25:11;;;;;;;51.17;30.92;;;;;;;7.41;100.00;103868.16;6218680;23;20455;-63
2021/12/17 01:35:48;;;;;;;53.58;32.08;;;;;;;7.30;100.00;103857.19;6218178;23;20096;-64
2021/12/17 01:43:59;;;;;;;53.10;31.50;;;;;;;7.43;100.00;103871.72;6184107;23;20075;-64
2021/12/17 01:46:29;;;;;;;53.03;30.85;;;;;;;7.43;100.00;103866.50;6218561;23;20024;-64
2021/12/17 01:59:47;;;;;;;53.83;30.92;;;;;;;7.42;100.00;103867.34;6218015;23;20023;-63
2021/12/17 02:02:13;;;;;;;55.70;32.10;;;;;;;7.47;100.00;103871.03;6218241;23;20020;-64
2021/12/17 02:04:38;;;;;;;60.72;32.97;;;;;;;7.46;100.00;103870.13;6217803;23;20005;-63
2021/12/17 02:07:05;;;;;;;59.55;31.92;;;;;;;7.50;100.00;103868.56;6218411;23;20008;-63
2021/12/17 02:12:19;;;;;;;58.35;32.10;;;;;;;7.50;100.00;103865.97;6228253;23;20031;-64
2021/12/17 02:20:57;;;;;;;55.50;30.30;;;;;;;7.58;100.00;103870.75;6217678;23;20437;-65
2021/12/17 02:31:40;;;;;;;62.65;33.20;;;;;;;7.56;100.00;103874.97;6228324;23;20394;-63
2021/12/17 02:34:28;;;;;;;79.50;36.35;;;;;;;7.54;100.00;103874.00;6216846;23;20100;-63
2021/12/17 02:36:55;;;;;;;77.07;34.83;;;;;;;7.51;100.00;103875.56;6217791;23;20032;-64
2021/12/17 02:47:29;;;;;;;82.15;35.35;;;;;;;7.47;100.00;103865.81;6217420;23;20024;-64
2021/12/17 02:49:54;;;;;;;81.25;36.80;;;;;;;7.50;100.00;103871.19;6218314;23;20004;-63
2021/12/17 02:52:25;;;;;;;81.57;35.90;;;;;;;7.51;100.00;103860.81;6218378;23;20020;-63
2021/12/17 02:54:51;;;;;;;79.18;35.20;;;;;;;7.52;100.00;103864.31;6217411;23;20005;-63
2021/12/17 02:57:17;;;;;;;79.47;36.00;;;;;;;7.58;100.00;103875.94;6217816;23;20008;-64
2021/12/17 02:59:42;;;;;;;83.57;36.42;;;;;;;7.54;100.00;103866.19;6217288;23;20317;-63
2021/12/17 03:02:09;;;;;;;86.10;37.45;;;;;;;7.59;100.00;103872.53;6217930;23;20016;-63
2021/12/17 03:04:37;;;;;;;81.63;35.53;;;;;;;7.61;100.00;103873.50;6217799;23;20009;-64
2021/12/17 03:07:03;;;;;;;84.03;36.85;;;;;;;7.59;100.00;103872.53;6217791;23;20079;-64
2021/12/17 03:09:51;;;;;;;90.47;37.72;;;;;;;7.54;100.00;103863.59;6217798;23;20429;-63
2021/12/17 03:12:28;;;;;;;92.70;37.55;;;;;;;7.59;100.00;103877.75;6217624;23;20005;-64
2021/12/17 03:15:05;;;;;;;85.25;36.00;;;;;;;7.58;100.00;103872.44;6218155;23;20008;-63
2021/12/17 03:18:02;;;;;;;92.72;37.78;;;;;;;7.56;100.00;103869.78;6217724;23;20016;-63
2021/12/17 03:25:43;;;;;;;93.25;36.70;;;;;;;7.62;100.00;103887.38;6217167;23;20159;-63
2021/12/17 03:28:08;;;;;;;103.78;38.58;;;;;;;7.55;100.00;103883.63;6217554;23;20016;-63
2021/12/17 03:30:34;;;;;;;102.88;36.13;;;;;;;7.54;100.00;103883.53;6217396;23;20004;-63
2021/12/17 03:32:59;;;;;;;104.60;37.67;;;;;;;7.55;100.00;103883.63;6217648;23;20008;-63
2021/12/17 03:35:24;;;;;;;115.38;39.05;;;;;;;7.57;100.00;103888.91;6217111;23;20008;-64
2021/12/17 03:37:50;;;;;;;112.57;37.25;;;;;;;7.54;100.00;103889.66;6217193;23;20074;-63
2021/12/17 03:40:18;;;;;;;109.72;37.42;;;;;;;7.56;100.00;103885.41;6217794;23;20016;-63
2021/12/17 03:42:48;;;;;;;112.18;38.45;;;;;;;7.57;100.00;103884.59;6217839;23;20012;-64
2021/12/17 03:45:15;;;;;;;105.45;37.63;;;;;;;7.60;100.00;103881.25;6217664;23;20011;-63
2021/12/17 03:47:41;;;;;;;113.82;36.72;;;;;;;7.59;100.00;103882.06;6217525;23;20027;-64
2021/12/17 03:50:06;;;;;;;114.65;37.13;;;;;;;7.55;100.00;103882.72;6216932;23;20004;-63
2021/12/17 03:52:32;;;;;;;118.07;37.58;;;;;;;7.50;100.00;103872.06;6217960;23;20012;-64
2021/12/17 03:54:57;;;;;;;124.30;38.97;;;;;;;7.49;100.00;103885.91;6217487;23;20111;-63
2021/12/17 03:57:22;;;;;;;122.45;36.97;;;;;;;7.48;100.00;103872.81;6217408;23;20001;-63
2021/12/17 03:59:48;;;;;;;128.43;37.85;;;;;;;7.43;100.00;103874.31;6217640;23;20008;-63
2021/12/17 04:02:14;;;;;;;128.90;37.85;;;;;;;7.41;100.00;103875.97;6216883;23;20004;-63
2021/12/17 04:04:39;;;;;;;137.93;38.92;;;;;;;7.46;100.00;103884.88;6217292;23;20282;-63
2021/12/17 04:07:05;;;;;;;145.80;39.60;;;;;;;7.44;100.00;103881.31;6219209;23;20005;-63
2021/12/17 04:09:31;;;;;;;136.30;39.03;;;;;;;7.43;100.00;103874.31;6219013;23;20307;-63
2021/12/17 04:11:58;;;;;;;141.05;38.90;;;;;;;7.43;100.00;103877.81;6219570;23;20382;-63
2021/12/17 04:14:33;;;;;;;143.50;40.20;;;;;;;7.45;100.00;103873.56;6219411;23;20009;-63
2021/12/17 04:17:06;;;;;;;147.68;39.40;;;;;;;7.28;100.00;103846.69;6219072;23;20012;-63
2021/12/17 04:19:32;;;;;;;168.88;42.50;;;;;;;7.39;100.00;103869.78;6219820;23;20004;-63
2021/12/17 04:21:59;;;;;;;156.73;41.70;;;;;;;7.40;100.00;103862.03;6219247;23;20008;-63
2021/12/17 04:24:24;;;;;;;153.82;41.78;;;;;;;7.40;100.00;103868.97;6219205;23;20023;-63
2021/12/17 04:26:49;;;;;;;154.07;42.85;;;;;;;7.34;100.00;103867.84;6218878;23;20004;-63
2021/12/17 04:29:16;;;;;;;166.10;43.55;;;;;;;7.37;100.00;103874.91;6219315;23;20369;-63
2021/12/17 04:31:41;;;;;;;164.60;43.83;;;;;;;7.29;100.00;103860.63;6219022;23;20004;-63
2021/12/17 04:34:08;;;;;;;168.98;44.05;;;;;;;7.38;100.00;103868.00;6219109;23;20100;-63
2021/12/17 04:36:35;;;;;;;166.60;43.30;;;;;;;7.35;100.00;103868.72;6218845;23;20268;-64
2021/12/17 04:39:01;;;;;;;168.80;42.50;;;;;;;7.39;100.00;103885.41;6218945;23;20290;-63
2021/12/17 04:46:43;;;;;;;172.57;43.53;;;;;;;7.37;100.00;103868.81;6229079;23;20362;-63
2021/12/17 04:59:49;;;;;;;182.25;44.92;;;;;;;7.34;100.00;103870.44;6229059;23;20012;-63
2021/12/17 05:02:16;;;;;;;178.70;45.47;;;;;;;7.32;100.00;103866.88;6218781;23;20004;-63
2021/12/17 05:04:42;;;;;;;176.80;43.13;;;;;;;7.36;100.00;103873.13;6218848;23;20009;-63
2021/12/17 05:07:11;;;;;;;171.50;44.10;;;;;;;7.38;100.00;103870.59;6218628;23;20011;-64
2021/12/17 05:09:49;;;;;;;186.88;45.78;;;;;;;7.36;100.00;103862.72;6218434;23;20031;-63
2021/12/17 05:20:31;;;;;;;171.05;45.05;;;;;;;7.39;100.00;103875.88;6218741;23;20314;-64
2021/12/17 05:22:59;;;;;;;180.00;44.20;;;;;;;7.41;100.00;103869.03;6218939;23;20027;-63
2021/12/17 05:25:26;;;;;;;172.05;44.30;;;;;;;7.41;100.00;103871.66;6217265;23;20012;-64
2021/12/17 05:27:53;;;;;;;160.18;42.90;;;;;;;7.37;100.00;103869.72;6218539;23;20011;-64
2021/12/17 05:30:18;;;;;;;169.57;42.28;;;;;;;7.44;100.00;103877.00;6218319;23;20062;-64
2021/12/17 05:32:44;;;;;;;164.65;43.95;;;;;;;7.42;100.00;103883.84;6218878;23;20016;-63
2021/12/17 05:35:09;;;;;;;159.48;44.72;;;;;;;7.40;100.00;103876.78;6219033;23;20020;-64
2021/12/17 05:37:34;;;;;;;151.63;40.47;;;;;;;7.41;100.00;103879.47;6218345;23;20075;-64
2021/12/17 05:39:59;;;;;;;166.75;43.08;;;;;;;7.42;100.00;103889.06;6218188;23;20055;-64
2021/12/17 05:42:25;;;;;;;178.85;44.42;;;;;;;7.44;100.00;103891.75;6218643;23;20020;-64
2021/12/17 05:44:55;;;;;;;172.43;44.08;;;;;;;7.45;100.00;103893.50;6217805;23;20090;-64
2021/12/17 05:47:21;;;;;;;165.38;40.80;;;;;;;7.45;100.00;103888.28;6218331;23;20475;-64
2021/12/17 05:49:46;;;;;;;175.10;43.58;;;;;;;7.42;100.00;103877.75;6218536;23;20036;-64
2021/12/17 05:52:11;;;;;;;185.50;43.97;;;;;;;7.42;100.00;103885.56;6218516;23;20037;-64
2021/12/17 05:54:36;;;;;;;175.93;43.65;;;;;;;7.38;100.00;103875.81;6218277;23;20386;-64
2021/12/17 05:57:02;;;;;;;168.43;42.50;;;;;;;7.39;100.00;103870.69;6216967;23;20080;-65
2021/12/17 05:59:33;;;;;;;169.70;40.15;;;;;;;7.40;100.00;103867.25;6218156;23;20004;-63
2021/12/17 06:02:01;;;;;;;164.65;40.75;;;;;;;7.41;100.00;103887.28;6218318;23;20005;-64
2021/12/17 06:04:26;;;;;;;147.57;38.42;;;;;;;7.39;100.00;103888.03;6217922;23;20004;-64
2021/12/17 06:06:51;;;;;;;142.73;35.67;;;;;;;7.41;100.00;103889.00;6217941;23;20359;-64
2021/12/17 06:09:17;;;;;;;133.98;36.70;;;;;;;7.37;100.00;103890.53;6217861;23;20374;-63
2021/12/17 06:11:42;;;;;;;139.45;34.55;;;;;;;7.42;100.00;103888.19;6217582;23;20020;-64
2021/12/17 06:14:07;;;;;;;143.95;37.13;;;;;;;7.37;100.00;103889.66;6217739;23;20024;-64
2021/12/17 06:16:33;;;;;;;137.07;35.28;;;;;;;7.37;100.00;103902.69;6218139;23;20005;-64
2021/12/17 06:19:01;;;;;;;131.55;34.78;;;;;;;7.24;100.00;103881.25;6218082;23;20011;-63
2021/12/17 06:21:26;;;;;;;134.70;32.70;;;;;;;7.34;100.00;103893.88;6217661;23;20299;-63
2021/12/17 06:23:51;;;;;;;125.10;32.20;;;;;;;7.34;100.00;103896.50;6218127;23;20008;-63
2021/12/17 06:26:16;;;;;;;134.52;32.25;;;;;;;7.33;100.00;103905.13;6217917;23;20378;-63
2021/12/17 06:28:42;;;;;;;135.15;31.23;;;;;;;7.28;100.00;103909.22;6218054;23;20046;-64
2021/12/17 06:31:07;;;;;;;127.88;31.23;;;;;;;7.31;100.00;103908.47;6217908;23;20024;-63
2021/12/17 06:33:33;;;;;;;137.23;34.03;;;;;;;7.30;100.00;103915.38;6216982;23;20063;-63
2021/12/17 06:35:58;;;;;;;129.82;30.60;;;;;;;7.29;100.00;103910.09;6217693;23;20448;-63
2021/12/17 06:38:24;;;;;;;132.02;30.30;;;;;;;7.30;100.00;103911.88;6217635;23;20059;-64
2021/12/17 06:40:53;;;;;;;122.03;28.55;;;;;;;7.29;100.00;103913.59;6217531;23;20075;-64
2021/12/17 06:43:18;;;;;;;114.93;28.10;;;;;;;7.30;100.00;103918.00;6218062;23;20000;-63
2021/12/17 06:48:10;;;;;;;115.07;26.83;;;;;;;7.25;100.00;103911.69;6217891;23;20445;-63
2021/12/17 06:59:02;;;;;;;123.20;30.13;;;;;;;7.25;100.00;103906.47;6217281;23;20428;-64
2021/12/17 07:17:47;;;;;;;101.93;25.25;;;;;;;7.21;100.00;103920.16;6217269;23;20019;-62
2021/12/17 07:23:24;;;;;;;107.03;24.95;;;;;;;7.11;100.00;103912.69;6199643;23;20012;-62
2021/12/17 07:34:00;;;;;;;92.38;22.33;;;;;;;7.20;100.00;103913.16;6217241;23;20069;-61
2021/12/17 07:36:25;;;;;;;90.60;22.08;;;;;;;7.22;100.00;103908.03;6217012;23;20456;-62
2021/12/17 07:38:52;;;;;;;90.78;21.10;;;;;;;7.21;100.00;103898.44;6217593;23;20028;-62
2021/12/17 07:41:18;;;;;;;95.90;21.83;;;;;;;7.26;100.00;103904.78;6218888;23;20013;-62
2021/12/17 07:43:56;;;;;;;90.75;21.42;;;;;;;7.25;100.00;103901.28;6219461;23;20013;-62
2021/12/17 07:46:23;;;;;;;88.28;22.05;;;;;;;7.20;100.00;103902.75;6219888;23;20019;-62
2021/12/17 07:48:49;;;;;;;91.07;21.88;;;;;;;7.20;100.00;103907.06;6219500;23;20004;-61
2021/12/17 07:51:16;;;;;;;92.05;21.75;;;;;;;7.25;100.00;103908.19;6219101;23;20016;-62
2021/12/17 07:53:41;;;;;;;99.72;22.38;;;;;;;7.23;100.00;103900.31;6219667;23;20008;-62
2021/12/17 07:56:10;;;;;;;89.88;22.00;;;;;;;7.23;100.00;103905.50;6218012;23;20047;-62
2021/12/17 07:58:36;;;;;;;98.53;23.38;;;;;;;7.20;100.00;103907.97;6218974;23;20005;-60
2021/12/17 08:01:01;;;;;;;93.88;22.58;;;;;;;7.13;100.00;103898.03;6219403;23;20070;-63
2021/12/17 08:03:26;;;;;;;93.35;22.05;;;;;;;7.20;100.00;103901.84;6218422;23;20012;-66
2021/12/17 08:05:53;;;;;;;96.50;22.67;;;;;;;7.23;100.00;103902.00;6218100;23;20015;-63
2021/12/17 08:08:18;;;;;;;103.18;23.42;;;;;;;7.20;100.00;103902.75;6219213;23;20028;-65
2021/12/17 08:10:44;;;;;;;94.90;23.17;;;;;;;7.22;100.00;103902.81;6219141;23;20012;-65
2021/12/17 08:13:17;;;;;;;106.10;25.98;;;;;;;7.17;100.00;103899.97;6218945;23;20076;-66
2021/12/17 08:15:49;;;;;;;109.28;26.27;;;;;;;7.16;100.00;103895.59;6219233;23;20015;-65
2021/12/17 08:24:39;;;;;;;106.47;24.15;;;;;;;7.19;100.00;103919.19;6219017;23;20027;-65
2021/12/17 08:26:57;;;;;;;98.75;24.08;;;;;;;7.15;100.00;103925.06;6218371;23;20334;-65
2021/12/17 08:29:31;;;;;;;114.68;26.40;;;;;;;7.18;100.00;103925.22;6218606;23;20009;-66
2021/12/17 08:31:58;;;;;;;111.57;26.90;;;;;;;7.16;100.00;103913.81;6219018;23;20015;-65
2021/12/17 08:34:24;;;;;;;111.38;31.67;;;;;;;7.19;100.00;103931.31;6218601;23;20100;-65
2021/12/17 08:36:49;;;;;;;114.35;33.38;;;;;;;7.14;100.00;103931.06;6218655;23;20424;-65
2021/12/17 08:39:15;;;;;;;104.97;34.03;;;;;;;7.18;100.00;103934.75;6218864;23;20023;-65
2021/12/17 08:41:41;;;;;;;111.75;35.72;;;;;;;7.18;100.00;103939.94;6218994;23;20012;-65
2021/12/17 08:44:07;;;;;;;103.78;35.67;;;;;;;7.23;100.00;103936.75;6218132;23;20013;-66
2021/12/17 08:46:33;;;;;;;103.47;36.15;;;;;;;7.24;100.00;103932.44;6218791;23;20016;-65
2021/12/17 08:48:58;;;;;;;110.10;37.30;;;;;;;7.23;100.00;103931.56;6218655;23;20279;-65
2021/12/17 08:51:24;;;;;;;98.93;35.88;;;;;;;7.23;100.00;103931.56;6218489;23;20008;-65
2021/12/17 08:53:49;;;;;;;97.72;35.88;;;;;;;7.24;100.00;103928.13;6218293;23;20395;-65
2021/12/17 08:56:18;;;;;;;108.18;37.03;;;;;;;7.23;100.00;103934.16;6218690;23;20306;-65
2021/12/17 08:58:49;;;;;;;97.80;36.63;;;;;;;7.23;100.00;103931.56;6218214;23;20012;-65
2021/12/17 09:01:14;;;;;;;101.53;36.15;;;;;;;7.20;100.00;103917.47;6218747;23;20019;-65
2021/12/17 09:03:40;;;;;;;105.80;38.75;;;;;;;7.22;100.00;103921.94;6218690;23;20009;-65
2021/12/17 09:06:05;;;;;;;102.60;37.63;;;;;;;7.22;100.00;103932.38;6218568;23;20282;-65
2021/12/17 09:08:30;;;;;;;97.10;36.05;;;;;;;7.15;100.00;103912.03;6218270;23;20075;-65
2021/12/17 09:10:56;;;;;;;99.18;37.30;;;;;;;7.21;100.00;103922.78;6218194;23;20353;-65
2021/12/17 09:13:25;;;;;;;99.93;35.25;;;;;;;7.24;100.00;103935.06;6218188;23;20381;-65
2021/12/17 09:15:53;;;;;;;95.95;35.45;;;;;;;7.23;100.00;103931.56;6218507;23;20008;-65
2021/12/17 09:18:18;;;;;;;102.93;35.70;;;;;;;7.33;100.00;103941.59;6218415;23;20005;-65
2021/12/17 09:20:45;;;;;;;94.40;34.95;;;;;;;7.37;100.00;103944.34;6218089;23;20365;-65
2021/12/17 09:23:11;;;;;;;94.72;36.20;;;;;;;7.33;100.00;103957.22;6218400;23;20015;-65
2021/12/17 09:25:36;;;;;;;96.50;33.80;;;;;;;7.28;100.00;103950.00;6218451;23;20008;-65
2021/12/17 09:28:04;;;;;;;100.53;35.47;;;;;;;7.28;100.00;103970.84;6218316;23;20009;-62
2021/12/17 09:30:30;;;;;;;102.00;36.10;;;;;;;7.22;100.00;103968.84;6216601;23;20413;-63
2021/12/17 09:32:55;;;;;;;103.88;36.67;;;;;;;7.28;100.00;103969.13;6217885;23;20618;-63
2021/12/17 09:35:21;;;;;;;99.45;34.75;;;;;;;7.28;100.00;103968.22;6218264;23;20000;-65
2021/12/17 09:37:47;;;;;;;105.38;35.25;;;;;;;7.29;100.00;103977.81;6217104;23;20005;-66
2021/12/17 09:40:13;;;;;;;107.90;36.38;;;;;;;7.32;100.00;103984.09;6217948;23;20004;-64
2021/12/17 09:42:40;;;;;;;103.97;35.15;;;;;;;7.33;100.00;103977.16;6217586;23;20096;-64
2021/12/17 09:45:06;;;;;;;96.35;34.50;;;;;;;7.30;100.00;103975.31;6218099;23;20004;-64
2021/12/17 09:47:32;;;;;;;109.78;34.88;;;;;;;7.37;100.00;103984.34;6218007;23;20009;-63
2021/12/17 09:49:58;;;;;;;107.95;34.35;;;;;;;7.37;100.00;103988.66;6217811;23;20280;-63
2021/12/17 09:52:25;;;;;;;105.10;35.25;;;;;;;7.33;100.00;103972.84;6217912;23;20001;-63
2021/12/17 09:54:51;;;;;;;107.22;34.78;;;;;;;7.40;100.00;103992.31;6217951;23;20004;-64
2021/12/17 09:57:19;;;;;;;102.15;33.28;;;;;;;7.39;100.00;103992.22;6217358;23;20004;-64
2021/12/17 09:59:44;;;;;;;108.80;34.78;;;;;;;7.39;100.00;103982.69;6217320;23;20414;-62
2021/12/17 10:02:09;;;;;;;107.90;34.35;;;;;;;7.44;100.00;103988.16;6217569;23;20020;-62
2021/12/17 10:04:35;;;;;;;106.68;34.70;;;;;;;7.47;100.00;103990.88;6217230;23;20062;-62
2021/12/17 10:07:17;;;;;;;106.32;34.75;;;;;;;7.47;100.00;103983.97;6217783;23;20055;-62
2021/12/17 10:09:59;;;;;;;109.20;33.45;;;;;;;7.48;100.00;103990.06;6217309;23;20070;-62
2021/12/17 10:12:36;;;;;;;100.80;33.28;;;;;;;7.44;100.00;103991.66;6217669;23;20016;-62
2021/12/17 10:15:09;;;;;;;105.80;33.10;;;;;;;7.48;100.00;103995.28;6217659;23;20031;-62
2021/12/17 10:17:48;;;;;;;105.32;33.33;;;;;;;7.44;100.00;103994.25;6217447;23;20005;-61
2021/12/17 10:20:14;;;;;;;98.93;31.27;;;;;;;7.49;100.00;103991.84;6217577;23;20009;-62
2021/12/17 10:22:44;;;;;;;100.22;33.08;;;;;;;7.56;100.00;103994.84;6217715;23;20349;-62
2021/12/17 10:25:10;;;;;;;109.05;31.95;;;;;;;7.53;100.00;103992.09;6217289;23;20074;-62
2021/12/17 10:27:38;;;;;;;92.57;30.40;;;;;;;7.52;100.00;103989.41;6217999;23;20012;-62
2021/12/17 10:30:21;;;;;;;91.90;30.38;;;;;;;7.57;100.00;103994.03;6217331;23;20398;-62
2021/12/17 10:32:54;;;;;;;94.97;30.10;;;;;;;7.57;100.00;104006.19;6217562;23;20004;-66
2021/12/17 10:35:30;;;;;;;95.03;30.75;;;;;;;7.61;100.00;104010.72;6215827;23;20491;-62
2021/12/17 10:38:00;;;;;;;90.75;26.67;;;;;;;7.58;100.00;104003.66;6217198;23;20015;-62
2021/12/17 10:40:39;;;;;;;82.68;25.50;;;;;;;7.58;100.00;103989.72;6217181;23;20004;-62
2021/12/17 10:43:37;;;;;;;88.93;26.33;;;;;;;7.64;100.00;103984.78;6215601;23;20020;-62
2021/12/17 10:46:12;;;;;;;82.85;24.83;;;;;;;7.68;100.00;103995.44;6217716;23;20009;-61
2021/12/17 10:51:43;;;;;;;71.43;21.35;;;;;;;7.73;100.00;104000.91;6217181;23;20044;-63
2021/12/17 10:54:20;;;;;;;62.65;19.75;;;;;;;7.67;100.00;103980.63;6217046;23;20083;-62
2021/12/17 10:56:51;;;;;;;66.13;20.13;;;;;;;7.79;100.00;104000.31;6217168;23;20009;-62
2021/12/17 10:59:31;;;;;;;65.40;18.77;;;;;;;7.81;100.00;104006.47;6217074;23;20079;-62
2021/12/17 11:02:06;;;;;;;64.13;17.90;;;;;;;7.76;100.00;104001.06;6217196;23;20004;-60
2021/12/17 11:04:34;;;;;;;67.25;18.25;;;;;;;7.74;100.00;104001.78;6217410;23;20013;-62
2021/12/17 11:07:02;;;;;;;61.78;17.88;;;;;;;7.74;100.00;104002.69;6217720;23;20051;-61
2021/12/17 11:09:50;;;;;;;55.25;16.88;;;;;;;7.78;100.00;104006.34;6216947;23;20028;-61
2021/12/17 11:12:37;;;;;;;64.63;17.55;;;;;;;7.74;100.00;103989.66;6217145;23;20016;-61
2021/12/17 11:15:09;;;;;;;63.88;18.33;;;;;;;7.79;100.00;103989.88;6216908;23;20084;-61
2021/12/17 11:17:35;;;;;;;59.42;18.88;;;;;;;7.78;100.00;103993.31;6217433;23;20008;-61
2021/12/17 11:20:16;;;;;;;62.13;18.60;;;;;;;7.78;100.00;103995.91;6217453;23;20086;-63
2021/12/17 11:22:44;;;;;;;68.13;18.23;;;;;;;7.81;100.00;103993.44;6217059;23;20009;-63
2021/12/17 11:25:10;;;;;;;60.40;18.10;;;;;;;7.89;100.00;103995.59;6217348;23;20511;-63
2021/12/17 11:27:36;;;;;;;63.60;17.88;;;;;;;7.88;100.00;103988.59;6217260;23;20059;-63
2021/12/17 11:30:08;;;;;;;62.03;18.02;;;;;;;7.90;100.00;103988.69;6217211;23;20000;-63
2021/12/17 11:32:35;;;;;;;69.00;18.88;;;;;;;7.89;100.00;103976.47;6216993;23;20035;-63
2021/12/17 11:35:02;;;;;;;59.10;18.00;;;;;;;7.85;100.00;103972.81;6217165;23;20035;-65
2021/12/17 11:37:28;;;;;;;63.28;18.83;;;;;;;7.88;100.00;103969.44;6217131;23;20020;-63
2021/12/17 11:40:02;;;;;;;60.90;19.05;;;;;;;7.70;100.00;103948.59;6217360;23;20359;-64
2021/12/17 11:43:00;;;;;;;68.72;19.35;;;;;;;7.83;100.00;103969.22;6217767;23;20310;-64
2021/12/17 11:45:27;;;;;;;61.08;18.50;;;;;;;7.88;100.00;103959.91;6217017;23;20353;-64
2021/12/17 11:47:57;;;;;;;73.72;20.60;;;;;;;7.91;100.00;103957.47;6216996;23;20018;-64
2021/12/17 11:50:23;;;;;;;55.60;19.17;;;;;;;7.82;100.00;103938.75;6217444;23;20005;-65
2021/12/17 11:52:50;;;;;;;61.45;18.73;;;;;;;7.94;100.00;103955.00;6216979;23;20004;-63
2021/12/17 11:55:22;;;;;;;52.80;18.20;;;;;;;8.02;100.00;103955.34;6217610;23;20032;-64
2021/12/17 11:57:50;;;;;;;50.35;17.30;;;;;;;8.06;100.00;103953.78;6217038;23;20036;-63
2021/12/17 12:00:21;;;;;;;49.58;17.60;;;;;;;8.03;100.00;103958.03;6216914;23;20020;-64
2021/12/17 12:02:48;;;;;;;45.88;17.02;;;;;;;8.03;100.00;103950.19;6217180;23;20074;-64
2021/12/17 12:05:36;;;;;;;54.70;19.48;;;;;;;8.06;100.00;103945.97;6217273;23;20009;-64
2021/12/17 12:08:45;;;;;;;49.65;17.98;;;;;;;8.06;100.00;103944.25;6217184;23;20031;-62
2021/12/17 12:11:18;;;;;;;46.38;17.15;;;;;;;8.05;100.00;103939.84;6217195;23;20039;-63
2021/12/17 12:13:49;;;;;;;45.55;18.48;;;;;;;8.03;100.00;103954.53;6212890;23;20403;-64
2021/12/17 12:16:23;;;;;;;45.70;17.10;;;;;;;8.03;100.00;103963.25;6216730;23;20047;-63
2021/12/17 12:18:59;;;;;;;41.60;18.17;;;;;;;8.04;100.00;103962.44;6216332;23;20357;-64
2021/12/17 12:21:32;;;;;;;40.53;17.10;;;;;;;7.99;100.00;103958.69;6217067;23;20079;-63
2021/12/17 12:24:09;;;;;;;39.20;16.75;;;;;;;7.93;100.00;103939.28;6216594;23;20016;-63
2021/12/17 12:26:44;;;;;;;45.90;18.35;;;;;;;8.01;100.00;103962.28;6217493;23;20008;-60
2021/12/17 12:29:15;;;;;;;45.88;18.27;;;;;;;8.01;100.00;103967.50;6219345;23;20101;-63
2021/12/17 12:31:53;;;;;;;42.47;17.27;;;;;;;8.02;100.00;103964.06;6218858;23;20012;-64
2021/12/17 12:34:39;;;;;;;39.00;16.17;;;;;;;8.02;100.00;103957.94;6218140;23;20009;-62
2021/12/17 12:37:07;;;;;;;32.03;16.15;;;;;;;8.08;100.00;103952.13;6218436;23;20013;-63
2021/12/17 12:39:42;;;;;;;35.78;16.60;;;;;;;8.09;100.00;103953.94;6218927;23;20001;-63
2021/12/17 12:42:17;;;;;;;35.28;15.40;;;;;;;8.12;100.00;103952.38;6218614;23;20418;-64
2021/12/17 12:44:45;;;;;;;37.67;16.20;;;;;;;8.03;100.00;103955.41;6217142;23;20386;-64
2021/12/17 12:47:13;;;;;;;34.83;16.98;;;;;;;7.98;100.00;103941.25;6216853;23;20076;-64
2021/12/17 12:50:04;;;;;;;41.08;18.10;;;;;;;8.02;100.00;103943.19;6218775;23;20032;-64
2021/12/17 12:52:32;;;;;;;37.25;17.70;;;;;;;8.04;100.00;103943.28;6218549;23;20103;-63
2021/12/17 12:55:03;;;;;;;40.13;17.85;;;;;;;8.08;100.00;103953.03;6218241;23;20413;-63
2021/12/17 12:57:35;;;;;;;36.08;17.70;;;;;;;8.10;100.00;103953.09;6218869;23;20001;-63
2021/12/17 13:00:21;;;;;;;32.20;15.88;;;;;;;8.13;100.00;103942.81;6218358;23;20108;-63
2021/12/17 13:02:50;;;;;;;26.92;12.60;;;;;;;8.14;100.00;103942.00;6218607;23;20071;-64
2021/12/17 13:05:16;;;;;;;25.38;12.13;;;;;;;8.09;100.00;103946.09;6218627;23;20071;-64
2021/12/17 13:07:46;;;;;;;26.88;12.07;;;;;;;8.06;100.00;103948.56;6218744;23;20089;-65
2021/12/17 13:10:34;;;;;;;24.60;12.20;;;;;;;8.03;100.00;103950.19;6218709;23;20063;-64
2021/12/17 13:13:18;;;;;;;29.40;12.70;;;;;;;7.95;100.00;103951.56;6218019;23;20035;-63
2021/12/17 13:15:51;;;;;;;31.70;14.50;;;;;;;7.92;100.00;103953.13;6218873;23;20004;-63
2021/12/17 13:21:19;;;;;;;28.05;13.15;;;;;;;7.92;100.00;103947.94;6218717;23;20009;-63
2021/12/17 13:23:50;;;;;;;27.90;14.07;;;;;;;7.88;100.00;103946.88;6218282;23;20035;-63
2021/12/17 13:26:17;;;;;;;28.92;14.80;;;;;;;7.81;100.00;103947.41;6218846;23;20009;-63
2021/12/17 13:29:09;;;;;;;30.00;14.23;;;;;;;7.85;100.00;103944.13;6217743;23;20089;-63
2021/12/17 13:31:49;;;;;;;27.88;13.93;;;;;;;7.86;100.00;103945.91;6218457;23;20051;-63
2021/12/17 13:34:34;;;;;;;31.35;13.75;;;;;;;7.90;100.00;103941.75;6218468;23;20015;-63
2021/12/17 13:37:00;;;;;;;26.85;14.18;;;;;;;7.89;100.00;103942.56;6218239;23;20058;-63
2021/12/17 13:39:29;;;;;;;23.13;12.38;;;;;;;7.88;100.00;103935.56;6218273;23;20055;-63
2021/12/17 13:41:55;;;;;;;24.08;12.27;;;;;;;7.88;100.00;103941.66;6217947;23;20024;-63
2021/12/17 13:44:41;;;;;;;21.17;11.40;;;;;;;7.84;100.00;103937.13;6218156;23;20349;-62
2021/12/17 13:47:24;;;;;;;20.30;10.82;;;;;;;7.86;100.00;103945.91;6218601;23;20024;-61
2021/12/17 13:49:58;;;;;;;21.02;10.48;;;;;;;7.85;100.00;103933.69;6218198;23;20087;-62
2021/12/17 13:52:26;;;;;;;17.65;9.60;;;;;;;7.88;100.00;103931.22;6218178;23;20018;-62
2021/12/17 13:54:53;;;;;;;14.18;9.05;;;;;;;7.80;100.00;103936.88;6217800;23;20027;-62
2021/12/17 13:57:25;;;;;;;15.57;8.70;;;;;;;7.77;100.00;103944.59;6217902;23;20013;-62
2021/12/17 13:59:51;;;;;;;15.57;8.75;;;;;;;7.76;100.00;103951.53;6218083;23;20005;-61
2021/12/17 14:02:18;;;;;;;15.07;8.73;;;;;;;7.77;100.00;103940.28;6217609;23;20023;-62
2021/12/17 14:05:00;;;;;;;15.35;8.45;;;;;;;7.81;100.00;103950.00;6217527;23;20306;-63
2021/12/17 14:07:27;;;;;;;;;;;;;;;7.86;100.00;103950.22;6218136;23;20083;-63